createdAt,value
2019-02-14T00:01:59.950Z,11.87
2019-02-14T00:04:27.263Z,10.90
2019-02-14T00:06:54.960Z,11.17
2019-02-14T00:09:22.480Z,11.57
2019-02-14T00:11:50.512Z,11.30
2019-02-14T00:14:18.790Z,12.47
2019-02-14T00:16:46.607Z,12.53
2019-02-14T00:19:13.853Z,11.40
2019-02-14T00:21:42.161Z,12.40
2019-02-14T00:24:09.685Z,10.47
2019-02-14T00:26:36.873Z,10.93
2019-02-14T00:29:04.642Z,11.37
2019-02-14T00:31:32.516Z,11.77
2019-02-14T00:33:59.713Z,11.13
2019-02-14T00:36:27.070Z,11.07
2019-02-14T00:38:54.651Z,10.77
2019-02-14T00:41:22.386Z,12.87
2019-02-14T00:43:50.044Z,12.03
2019-02-14T00:46:17.601Z,11.60
2019-02-14T00:48:45.246Z,12.03
2019-02-14T00:51:12.885Z,14.03
2019-02-14T00:53:40.881Z,13.07
2019-02-14T00:56:08.463Z,13.40
2019-02-14T00:58:36.198Z,13.53
2019-02-14T01:01:03.809Z,12.10
2019-02-14T01:03:31.202Z,12.60
2019-02-14T01:05:58.664Z,12.03
2019-02-14T01:08:26.464Z,13.27
2019-02-14T01:10:54.211Z,11.93
2019-02-14T01:13:21.574Z,11.87
2019-02-14T01:15:49.500Z,13.43
2019-02-14T01:18:16.663Z,13.07
2019-02-14T01:20:43.985Z,13.07
2019-02-14T01:23:11.674Z,12.17
2019-02-14T01:25:39.185Z,12.33
2019-02-14T01:28:07.087Z,13.00
2019-02-14T01:30:34.576Z,12.67
2019-02-14T01:33:02.257Z,12.77
2019-02-14T01:35:29.591Z,12.97
2019-02-14T01:37:57.777Z,12.30
2019-02-14T01:40:25.148Z,12.37
2019-02-14T01:42:52.282Z,12.53
2019-02-14T01:45:20.426Z,13.30
2019-02-14T01:47:48.293Z,12.83
2019-02-14T01:50:15.541Z,12.73
2019-02-14T01:52:43.625Z,12.13
2019-02-14T01:55:11.603Z,12.17
2019-02-14T01:57:39.299Z,12.00
2019-02-14T02:00:11.052Z,12.37
2019-02-14T02:02:38.692Z,11.00
2019-02-14T02:05:06.740Z,12.00
2019-02-14T02:07:34.739Z,10.57
2019-02-14T02:10:02.386Z,11.33
2019-02-14T02:12:29.977Z,10.47
2019-02-14T02:14:58.613Z,10.87
2019-02-14T02:17:26.501Z,10.30
2019-02-14T02:19:54.048Z,10.70
2019-02-14T02:22:21.683Z,10.77
2019-02-14T02:24:49.273Z,7.43
2019-02-14T02:27:17.089Z,10.80
2019-02-14T02:29:44.770Z,9.50
2019-02-14T02:32:15.845Z,10.07
2019-02-14T02:34:43.582Z,8.47
2019-02-14T02:37:11.466Z,10.23
2019-02-14T02:39:39.374Z,9.17
2019-02-14T02:42:07.020Z,9.40
2019-02-14T02:44:34.455Z,8.77
2019-02-14T02:47:01.704Z,8.53
2019-02-14T02:49:29.690Z,9.83
2019-02-14T02:51:57.492Z,9.27
2019-02-14T02:54:25.913Z,9.53
2019-02-14T02:56:53.399Z,9.47
2019-02-14T02:59:20.919Z,9.43
2019-02-14T03:01:48.505Z,9.17
2019-02-14T03:04:16.092Z,9.20
2019-02-14T03:06:43.226Z,8.90
2019-02-14T03:09:10.528Z,9.60
2019-02-14T03:11:37.830Z,11.03
2019-02-14T03:14:08.630Z,9.73
2019-02-14T03:16:35.794Z,8.67
2019-02-14T03:19:03.352Z,8.87
2019-02-14T03:21:31.157Z,9.60
2019-02-14T03:23:58.859Z,9.30
2019-02-14T03:26:26.824Z,8.30
2019-02-14T03:28:54.929Z,8.63
2019-02-14T03:31:22.381Z,8.40
2019-02-14T03:33:50.914Z,9.03
2019-02-14T03:36:19.413Z,8.30
2019-02-14T03:38:47.193Z,8.50
2019-02-14T03:41:14.398Z,8.63
2019-02-14T03:43:41.796Z,9.17
2019-02-14T03:46:09.074Z,9.50
2019-02-14T03:48:36.258Z,9.30
2019-02-14T03:51:04.083Z,9.03
2019-02-14T03:53:32.091Z,9.10
2019-02-14T03:55:59.853Z,9.83
2019-02-14T03:58:28.169Z,10.20
2019-02-14T04:00:55.982Z,10.40
2019-02-14T04:03:23.676Z,10.60
2019-02-14T04:05:51.115Z,10.37
2019-02-14T04:08:18.700Z,11.47
2019-02-14T04:10:45.898Z,11.13
2019-02-14T04:13:13.206Z,10.73
2019-02-14T04:15:40.839Z,11.53
2019-02-14T04:18:08.502Z,10.63
2019-02-14T04:20:36.880Z,10.20
2019-02-14T04:23:04.406Z,11.30
2019-02-14T04:25:31.894Z,10.53
2019-02-14T04:27:59.068Z,10.47
2019-02-14T04:30:26.439Z,11.10
2019-02-14T04:32:53.899Z,10.33
2019-02-14T04:35:21.200Z,9.53
2019-02-14T04:37:49.488Z,10.73
2019-02-14T04:40:17.018Z,9.50
2019-02-14T04:42:44.723Z,10.00
2019-02-14T04:45:12.561Z,9.67
2019-02-14T04:47:40.393Z,9.70
2019-02-14T04:50:08.242Z,9.20
2019-02-14T04:52:35.883Z,9.13
2019-02-14T04:55:04.267Z,9.20
2019-02-14T04:57:32.174Z,9.23
2019-02-14T04:59:59.805Z,10.93
2019-02-14T05:02:27.820Z,10.30
2019-02-14T05:04:55.251Z,9.20
2019-02-14T05:07:23.208Z,8.87
2019-02-14T05:09:50.939Z,9.10
2019-02-14T05:12:18.503Z,8.83
2019-02-14T05:14:45.630Z,8.97
2019-02-14T05:17:13.734Z,8.03
2019-02-14T05:19:40.916Z,9.83
2019-02-14T05:22:08.703Z,8.70
2019-02-14T05:24:36.234Z,8.00
2019-02-14T05:27:03.690Z,8.27
2019-02-14T05:29:32.305Z,7.77
2019-02-14T05:31:59.767Z,7.80
2019-02-14T05:34:27.419Z,7.47
2019-02-14T05:36:55.359Z,7.20
2019-02-14T05:39:23.129Z,7.47
2019-02-14T05:41:51.540Z,7.23
2019-02-14T05:44:19.667Z,7.60
2019-02-14T05:46:47.720Z,7.50
2019-02-14T05:49:15.361Z,9.28
2019-02-14T05:51:43.018Z,7.87
2019-02-14T05:54:13.246Z,8.20
2019-02-14T05:56:41.056Z,7.47
2019-02-14T05:59:10.372Z,7.80
2019-02-14T06:01:37.871Z,7.43
2019-02-14T06:04:05.127Z,8.93
2019-02-14T06:06:32.633Z,8.27
2019-02-14T06:09:00.088Z,8.30
2019-02-14T06:11:28.217Z,8.20
2019-02-14T06:13:55.747Z,7.30
2019-02-14T06:16:23.391Z,7.60
2019-02-14T06:18:50.705Z,8.90
2019-02-14T06:21:19.141Z,8.10
2019-02-14T06:23:49.981Z,8.17
2019-02-14T06:26:18.207Z,8.67
2019-02-14T06:28:46.032Z,9.07
2019-02-14T06:31:13.888Z,8.10
2019-02-14T06:33:41.306Z,8.97
2019-02-14T06:36:09.050Z,9.27
2019-02-14T06:38:36.654Z,9.20
2019-02-14T06:41:04.030Z,9.47
2019-02-14T06:43:31.895Z,8.97
2019-02-14T06:45:59.777Z,10.00
2019-02-14T06:48:27.691Z,9.53
2019-02-14T06:50:54.946Z,10.80
2019-02-14T06:53:22.883Z,10.73
2019-02-14T06:55:50.122Z,11.60
2019-02-14T06:58:17.389Z,10.43
2019-02-14T07:00:45.274Z,10.40
2019-02-14T07:03:12.702Z,11.57
2019-02-14T07:05:40.290Z,11.67
2019-02-14T07:08:07.961Z,10.33
2019-02-14T07:10:36.583Z,10.63
2019-02-14T07:13:04.570Z,11.03
2019-02-14T07:15:32.574Z,10.80
2019-02-14T07:18:00.673Z,10.57
2019-02-14T07:20:28.972Z,12.40
2019-02-14T07:22:56.803Z,12.40
2019-02-14T07:25:24.418Z,11.97
2019-02-14T07:27:51.955Z,12.30
2019-02-14T07:30:20.052Z,12.20
2019-02-14T07:32:48.001Z,11.90
2019-02-14T07:35:15.464Z,11.50
2019-02-14T07:37:42.862Z,11.07
2019-02-14T07:40:11.674Z,11.00
2019-02-14T07:42:39.178Z,10.60
2019-02-14T07:45:09.738Z,11.37
2019-02-14T07:47:37.104Z,10.97
2019-02-14T07:50:05.424Z,11.20
2019-02-14T07:52:33.381Z,10.90
2019-02-14T07:55:00.666Z,10.80
2019-02-14T07:57:27.932Z,11.03
2019-02-14T07:59:55.342Z,12.43
2019-02-14T08:02:22.720Z,11.97
2019-02-14T08:04:50.396Z,11.13
2019-02-14T08:07:18.127Z,12.07
2019-02-14T08:09:45.623Z,12.60
2019-02-14T08:12:13.709Z,12.53
2019-02-14T08:14:41.077Z,12.73
2019-02-14T08:17:08.175Z,12.47
2019-02-14T08:19:36.421Z,12.77
2019-02-14T08:22:04.022Z,14.57
2019-02-14T08:24:31.742Z,15.90
2019-02-14T08:26:59.617Z,15.47
2019-02-14T08:29:28.013Z,14.83
2019-02-14T08:31:56.703Z,14.83
2019-02-14T08:34:24.896Z,13.23
2019-02-14T08:36:56.509Z,13.37
2019-02-14T08:39:24.045Z,12.40
2019-02-14T08:41:52.435Z,14.20
2019-02-14T08:44:19.935Z,15.47
2019-02-14T08:46:47.809Z,16.60
2019-02-14T08:49:15.105Z,14.37
2019-02-14T08:51:42.729Z,12.07
2019-02-14T08:54:10.511Z,12.37
2019-02-14T08:56:38.933Z,11.27
2019-02-14T08:59:06.542Z,10.80
2019-02-14T09:01:33.902Z,10.67
2019-02-14T09:04:01.714Z,10.47
2019-02-14T09:06:29.630Z,10.40
2019-02-14T09:09:00.078Z,10.60
2019-02-14T09:11:27.489Z,10.70
2019-02-14T09:13:55.070Z,10.97
2019-02-14T09:16:23.010Z,10.10
2019-02-14T09:18:53.863Z,10.53
2019-02-14T09:21:21.330Z,10.63
2019-02-14T09:23:50.211Z,11.50
2019-02-14T09:26:18.287Z,11.97
2019-02-14T09:28:45.566Z,10.43
2019-02-14T09:31:13.650Z,10.93
2019-02-14T09:33:41.501Z,11.93
2019-02-14T09:36:08.611Z,10.47
2019-02-14T09:38:36.257Z,12.30
2019-02-14T09:41:03.828Z,11.00
2019-02-14T09:43:31.456Z,9.83
2019-02-14T09:45:58.880Z,10.07
2019-02-14T09:48:26.153Z,10.53
2019-02-14T09:50:53.497Z,9.43
2019-02-14T09:53:22.162Z,9.10
2019-02-14T09:55:49.584Z,10.43
2019-02-14T09:58:16.805Z,9.83
2019-02-14T10:00:44.626Z,9.93
2019-02-14T10:03:12.257Z,10.33
2019-02-14T10:05:40.010Z,9.90
2019-02-14T10:08:12.914Z,10.87
2019-02-14T10:10:37.347Z,10.00
2019-02-14T10:13:05.800Z,9.17
2019-02-14T10:15:33.880Z,10.00
2019-02-14T10:18:01.382Z,10.23
2019-02-14T10:20:28.846Z,10.10
2019-02-14T10:22:56.610Z,10.33
2019-02-14T10:25:23.958Z,9.83
2019-02-14T10:27:52.156Z,9.87
2019-02-14T10:30:19.530Z,9.07
2019-02-14T10:32:47.080Z,9.23
2019-02-14T10:35:15.011Z,9.53
2019-02-14T10:37:42.569Z,9.43
2019-02-14T10:40:11.776Z,10.07
2019-02-14T10:42:39.715Z,11.07
2019-02-14T10:45:10.897Z,10.20
2019-02-14T10:47:39.188Z,10.33
2019-02-14T10:50:08.790Z,10.13
2019-02-14T10:52:37.838Z,9.83
2019-02-14T10:55:08.751Z,9.87
2019-02-14T10:57:41.501Z,10.00
2019-02-14T11:00:18.048Z,9.80
2019-02-14T11:02:49.808Z,10.13
2019-02-14T11:05:21.560Z,9.27
2019-02-14T11:07:53.342Z,9.80
2019-02-14T11:10:27.721Z,10.47
2019-02-14T11:12:57.879Z,9.83
2019-02-14T11:15:28.464Z,9.87
2019-02-14T11:18:02.037Z,10.00
2019-02-14T11:20:34.574Z,9.50
2019-02-14T11:23:07.923Z,9.97
2019-02-14T11:25:38.123Z,10.00
2019-02-14T11:28:12.128Z,9.57
2019-02-14T11:30:41.578Z,10.77
2019-02-14T11:33:15.644Z,9.90
2019-02-14T11:35:44.084Z,9.83
2019-02-14T11:38:23.936Z,9.73
2019-02-14T11:40:53.812Z,10.77
2019-02-14T11:43:23.597Z,10.50
2019-02-14T11:45:54.929Z,10.80
2019-02-14T11:48:27.600Z,10.33
2019-02-14T11:50:57.888Z,9.70
2019-02-14T11:53:29.379Z,10.87
2019-02-14T11:55:59.794Z,10.40
2019-02-14T11:58:28.209Z,11.13
2019-02-14T12:00:55.468Z,11.27
2019-02-14T12:03:22.905Z,10.17
2019-02-14T12:05:50.310Z,11.07
2019-02-14T12:08:17.934Z,10.47
2019-02-14T12:10:46.437Z,10.27
2019-02-14T12:13:14.278Z,9.60
2019-02-14T12:15:41.765Z,10.67
2019-02-14T12:18:09.734Z,9.60
2019-02-14T12:20:47.874Z,9.70
2019-02-14T12:23:13.812Z,10.67
2019-02-14T12:25:42.797Z,10.53
2019-02-14T12:28:10.346Z,10.43
2019-02-14T12:30:39.203Z,10.90
2019-02-14T12:33:20.263Z,10.27
2019-02-14T12:35:48.076Z,10.17
2019-02-14T12:38:22.245Z,10.93
2019-02-14T12:40:49.977Z,10.93
2019-02-14T12:43:17.673Z,11.07
2019-02-14T12:45:44.953Z,10.27
2019-02-14T12:48:13.674Z,11.00
2019-02-14T12:50:40.900Z,10.80
2019-02-14T12:53:08.922Z,10.87
2019-02-14T12:55:36.521Z,10.50
2019-02-14T12:58:04.154Z,10.97
2019-02-14T13:00:33.064Z,10.73
2019-02-14T13:03:00.792Z,10.43
2019-02-14T13:05:28.360Z,10.67
2019-02-14T13:07:57.174Z,10.47
2019-02-14T13:10:26.155Z,10.13
2019-02-14T13:12:53.702Z,9.13
2019-02-14T13:15:21.750Z,10.13
2019-02-14T13:17:49.215Z,10.43
2019-02-14T13:20:17.184Z,9.53
2019-02-14T13:22:48.862Z,9.87
2019-02-14T13:25:16.463Z,10.13
2019-02-14T13:27:44.165Z,9.80
2019-02-14T13:30:15.338Z,10.10
2019-02-14T13:32:42.826Z,9.57
2019-02-14T13:35:10.285Z,9.00
2019-02-14T13:37:40.005Z,8.53
2019-02-14T13:40:08.004Z,9.07
2019-02-14T13:42:38.598Z,9.20
2019-02-14T13:45:09.825Z,7.97
2019-02-14T13:47:37.195Z,8.73
2019-02-14T13:50:06.159Z,8.73
2019-02-14T13:52:33.802Z,9.43
2019-02-14T13:55:01.377Z,7.77
2019-02-14T13:57:28.638Z,8.83
2019-02-14T13:59:57.034Z,8.70
2019-02-14T14:02:24.696Z,9.23
2019-02-14T14:04:57.121Z,8.07
2019-02-14T14:07:24.731Z,9.57
2019-02-14T14:09:52.407Z,9.87
2019-02-14T14:12:20.559Z,10.03
2019-02-14T14:14:48.296Z,10.07
2019-02-14T14:17:16.379Z,9.57
2019-02-14T14:19:43.998Z,10.23
2019-02-14T14:22:11.988Z,8.20
2019-02-14T14:24:39.436Z,9.43
2019-02-14T14:27:07.453Z,11.20
2019-02-14T14:29:35.296Z,10.47
2019-02-14T14:32:02.669Z,10.40
2019-02-14T14:34:30.172Z,10.93
2019-02-14T14:36:58.324Z,10.93
2019-02-14T14:39:26.402Z,11.17
2019-02-14T14:41:53.540Z,11.10
2019-02-14T14:44:29.996Z,11.13
2019-02-14T14:47:00.809Z,10.73
2019-02-14T14:49:27.960Z,11.07
2019-02-14T14:51:55.642Z,10.87
2019-02-14T14:54:23.279Z,10.77
2019-02-14T14:56:50.758Z,9.97
2019-02-14T14:59:18.571Z,10.77
2019-02-14T15:01:46.110Z,11.90
2019-02-14T15:04:13.488Z,11.33
2019-02-14T15:06:40.994Z,11.10
2019-02-14T15:09:12.437Z,11.13
2019-02-14T15:11:40.858Z,10.80
2019-02-14T15:14:08.528Z,11.10
2019-02-14T15:16:35.635Z,10.90
2019-02-14T15:19:03.800Z,10.47
2019-02-14T15:21:31.416Z,11.33
2019-02-14T15:23:58.530Z,10.40
2019-02-14T15:26:26.283Z,9.63
2019-02-14T15:28:53.670Z,9.30
2019-02-14T15:31:21.081Z,9.07
2019-02-14T15:33:49.314Z,8.43
2019-02-14T15:36:16.688Z,8.97
2019-02-14T15:38:44.763Z,9.60
2019-02-14T15:41:12.120Z,8.37
2019-02-14T15:43:39.880Z,8.77
2019-02-14T15:46:07.565Z,8.70
2019-02-14T15:48:35.022Z,8.83
2019-02-14T15:51:02.726Z,7.97
2019-02-14T15:53:30.488Z,8.10
2019-02-14T15:55:58.292Z,7.80
2019-02-14T15:58:26.030Z,7.43
2019-02-14T16:00:54.090Z,7.10
2019-02-14T16:03:21.627Z,7.70
2019-02-14T16:05:49.856Z,7.47
2019-02-14T16:08:19.454Z,7.17
2019-02-14T16:10:46.819Z,8.80
2019-02-14T16:13:14.060Z,7.63
2019-02-14T16:15:41.618Z,7.90
2019-02-14T16:18:09.170Z,8.67
2019-02-14T16:20:36.903Z,8.27
2019-02-14T16:23:06.434Z,9.13
2019-02-14T16:25:33.944Z,8.63
2019-02-14T16:28:01.590Z,7.03
2019-02-14T16:30:30.896Z,8.83
2019-02-14T16:32:58.335Z,8.57
2019-02-14T16:35:25.975Z,7.90
2019-02-14T16:37:53.396Z,7.73
2019-02-14T16:40:27.443Z,7.87
2019-02-14T16:42:54.745Z,8.43
2019-02-14T16:45:23.793Z,13.97
2019-02-14T16:47:51.066Z,11.47
2019-02-14T16:50:19.911Z,10.40
2019-02-14T16:52:47.921Z,10.40
2019-02-14T16:55:15.262Z,11.10
2019-02-14T16:57:42.644Z,11.70
2019-02-14T17:00:10.939Z,10.70
2019-02-14T17:02:38.455Z,9.87
2019-02-14T17:05:05.918Z,9.33
2019-02-14T17:07:34.054Z,9.00
2019-02-14T17:10:02.003Z,9.33
2019-02-14T17:12:29.556Z,9.50
2019-02-14T17:14:57.502Z,8.93
2019-02-14T17:17:27.846Z,8.73
2019-02-14T17:19:54.113Z,8.83
2019-02-14T17:22:22.019Z,10.53
2019-02-14T17:24:49.214Z,10.03
2019-02-14T17:27:18.111Z,10.77
2019-02-14T17:29:45.892Z,25.50
2019-02-14T17:32:13.599Z,22.73
2019-02-14T17:34:40.987Z,19.80
2019-02-14T17:37:08.786Z,13.93
2019-02-14T17:39:38.859Z,12.70
2019-02-14T17:42:06.715Z,11.40
2019-02-14T17:44:33.996Z,9.20
2019-02-14T17:47:01.573Z,9.03
2019-02-14T17:49:29.502Z,10.70
2019-02-14T17:51:56.670Z,9.77
2019-02-14T17:54:28.531Z,9.63
2019-02-14T17:56:55.851Z,9.10
2019-02-14T17:59:23.331Z,11.73
2019-02-14T18:01:51.058Z,16.00
2019-02-14T18:04:19.940Z,14.00
2019-02-14T18:06:50.648Z,14.23
2019-02-14T18:09:18.693Z,13.63
2019-02-14T18:11:49.251Z,12.57
2019-02-14T18:14:16.705Z,11.27
2019-02-14T18:16:44.074Z,11.07
2019-02-14T18:19:11.596Z,12.50
2019-02-14T18:21:38.976Z,12.93
2019-02-14T18:24:06.364Z,12.43
2019-02-14T18:26:33.762Z,13.33
2019-02-14T18:29:01.855Z,14.37
2019-02-14T18:31:29.001Z,14.53
2019-02-14T18:33:56.779Z,13.10
2019-02-14T18:36:24.601Z,13.17
2019-02-14T18:38:54.165Z,14.27
2019-02-14T18:41:21.908Z,15.67
2019-02-14T18:43:49.301Z,15.33
2019-02-14T18:46:16.990Z,15.80
2019-02-14T18:48:44.920Z,16.53
2019-02-14T18:51:12.594Z,15.57
2019-02-14T18:53:40.034Z,14.77
2019-02-14T18:56:09.545Z,14.30
2019-02-14T18:58:37.136Z,15.30
2019-02-14T19:01:05.307Z,15.73
2019-02-14T19:03:33.309Z,16.13
2019-02-14T19:06:00.838Z,17.10
2019-02-14T19:08:28.593Z,21.47
2019-02-14T19:10:56.918Z,19.80
2019-02-14T19:13:24.962Z,18.80
2019-02-14T19:15:52.444Z,21.40
2019-02-14T19:18:19.706Z,18.60
2019-02-14T19:20:46.861Z,20.72
2019-02-14T19:23:23.354Z,20.80
2019-02-14T19:25:43.992Z,19.90
2019-02-14T19:28:11.538Z,19.67
2019-02-14T19:30:39.122Z,25.57
2019-02-14T19:33:06.765Z,25.83
2019-02-14T19:35:34.501Z,25.43
2019-02-14T19:38:02.908Z,18.80
2019-02-14T19:40:30.336Z,17.80
2019-02-14T19:42:58.186Z,16.33
2019-02-14T19:45:36.089Z,17.90
2019-02-14T19:47:55.370Z,17.17
2019-02-14T19:50:23.367Z,14.47
2019-02-14T19:52:50.779Z,14.77
2019-02-14T19:55:18.397Z,13.70
2019-02-14T19:57:46.272Z,14.63
2019-02-14T20:00:14.352Z,13.90
2019-02-14T20:02:43.009Z,15.10
2019-02-14T20:05:10.833Z,14.77
2019-02-14T20:07:38.211Z,14.53
2019-02-14T20:10:08.383Z,14.27
2019-02-14T20:12:36.278Z,14.53
2019-02-14T20:15:04.993Z,14.47
2019-02-14T20:17:32.763Z,13.47
2019-02-14T20:20:00.465Z,15.13
2019-02-14T20:22:28.238Z,17.03
2019-02-14T20:24:57.026Z,18.83
2019-02-14T20:27:24.935Z,17.60
2019-02-14T20:29:52.926Z,31.03
2019-02-14T20:32:20.119Z,40.00
2019-02-14T20:34:47.896Z,39.23
2019-02-14T20:37:15.785Z,41.73
2019-02-14T20:39:44.333Z,36.23
2019-02-14T20:42:11.885Z,41.53
2019-02-14T20:44:39.268Z,25.47
2019-02-14T20:47:06.508Z,24.97
2019-02-14T20:49:34.116Z,19.77
2019-02-14T20:52:02.045Z,18.50
2019-02-14T20:54:30.570Z,18.37
2019-02-14T20:56:58.016Z,17.50
2019-02-14T20:59:25.309Z,19.50
